Stations météo

Publicité
Puerto Plata, République Dominicaine (78457): Température de l'air & dewpoint: 20.05.2018 17:00:00 - 26.05.2018 17:00:00 (AST)Puerto Plata, République Dominicaine (78457): Vitesse du vent: 20.05.2018 17:00:00 - 26.05.2018 17:00:00 (AST)Puerto Plata, République Dominicaine (78457): Direction du vent: 20.05.2018 17:00:00 - 26.05.2018 17:00:00 (AST)Puerto Plata, République Dominicaine (78457): visibility: 20.05.2018 17:00:00 - 26.05.2018 17:00:00 (AST)
Date & Time tt [°C] td [°C] ff [km/h] ff [knt] dd vv [km]
26.05.2018 17:00:00 30,0 24,0 15 8 E 10
26.05.2018 16:00:00 30,0 25,0 15 8 E 10
26.05.2018 15:00:00 30,0 25,0 37 20 E 10
26.05.2018 14:00:00 31,0 25,0 28 15 E 10
26.05.2018 13:00:00 31,0 25,0 26 14 ENE 10
26.05.2018 12:00:00 30,0 25,0 9 5 ENE 10
26.05.2018 11:00:00 31,0 23,0 18 10 ESE 10
26.05.2018 10:00:00 29,0 24,0 18 10 ESE 10
26.05.2018 09:00:00 28,0 24,0 15 8 E 10
26.05.2018 08:00:00 26,0 23,0 0 0 N 10
26.05.2018 07:00:00 23,0 23,0 0 0 N 10
26.05.2018 06:00:00 - - - - - -
26.05.2018 05:00:00 23,0 22,0 0 0 N 10
26.05.2018 04:00:00 - - - - - -
26.05.2018 03:00:00 - - - - - -
26.05.2018 02:00:00 24,0 23,0 0 0 N 10
26.05.2018 01:00:00 - - - - - -
26.05.2018 00:00:00 - - - - - -
25.05.2018 23:00:00 24,0 23,0 0 0 N 10
25.05.2018 22:00:00 25,0 23,0 0 0 N 10
25.05.2018 21:00:00 25,0 23,0 0 0 N 10
25.05.2018 20:00:00 26,0 23,0 18 10 E 10
25.05.2018 19:00:00 27,0 24,0 22 12 E 10
25.05.2018 18:00:00 27,0 24,0 24 13 E 10
25.05.2018 17:00:00 29,0 24,0 26 14 E 10
25.05.2018 16:00:00 30,0 24,0 28 15 E 10
25.05.2018 15:00:00 31,0 24,0 22 12 ENE 10
25.05.2018 14:00:00 31,0 24,0 28 15 E 10
25.05.2018 13:00:00 31,0 22,0 28 15 E 10
25.05.2018 12:00:00 31,0 23,0 28 15 E 10
25.05.2018 11:00:00 30,0 23,0 28 15 E 10
25.05.2018 10:00:00 27,0 23,0 18 10 E 10
25.05.2018 09:00:00 27,0 23,0 18 10 E 10
25.05.2018 08:00:00 - - - - - -
25.05.2018 07:00:00 - - - - - -
25.05.2018 06:00:00 - - - - - -
25.05.2018 05:00:00 23,0 22,0 0 0 N 10
25.05.2018 04:00:00 - - - - - -
25.05.2018 03:00:00 - - - - - -
25.05.2018 02:00:00 25,0 24,0 0 0 N 10
25.05.2018 01:00:00 - - - - - -
25.05.2018 00:00:00 - - - - - -
24.05.2018 23:00:00 24,0 24,0 0 0 N 10
24.05.2018 22:00:00 25,0 24,0 9 5 E 10
24.05.2018 21:00:00 25,0 24,0 9 5 E 10
24.05.2018 20:00:00 25,0 24,0 18 10 E 10
24.05.2018 19:00:00 28,0 25,0 18 10 E 10
24.05.2018 18:00:00 29,0 24,0 18 10 E 10
24.05.2018 17:00:00 29,0 24,0 18 10 E 10
24.05.2018 16:00:00 30,0 24,0 28 15 E 10
24.05.2018 15:00:00 31,0 24,0 18 10 E 10
24.05.2018 14:00:00 31,0 24,0 28 15 E 10
24.05.2018 13:00:00 31,0 24,0 18 10 ENE 10
24.05.2018 12:00:00 30,0 24,0 18 10 ENE 10
24.05.2018 11:00:00 30,0 24,0 18 10 E 10
24.05.2018 10:00:00 28,0 23,0 11 6 E 10
24.05.2018 09:00:00 27,0 23,0 18 10 ESE 10
24.05.2018 08:00:00 25,0 23,0 0 0 N 10
24.05.2018 07:00:00 24,0 23,0 0 0 N 10
24.05.2018 06:00:00 - - - - - -
24.05.2018 05:00:00 24,0 23,0 0 0 N 10
24.05.2018 04:00:00 - - - - - -
24.05.2018 03:00:00 - - - - - -
24.05.2018 02:00:00 25,0 23,0 9 5 E 10
24.05.2018 01:00:00 - - - - - -
24.05.2018 00:00:00 - - - - - -
23.05.2018 23:00:00 26,0 23,0 15 8 E 10
23.05.2018 22:00:00 26,0 23,0 18 10 E 10
23.05.2018 21:00:00 26,0 22,0 18 10 E 10
23.05.2018 20:00:00 27,0 23,0 22 12 E 10
23.05.2018 19:00:00 27,0 23,0 18 10 E 10
23.05.2018 18:00:00 28,0 23,0 28 15 E 10
23.05.2018 17:00:00 28,0 24,0 28 15 E 10
23.05.2018 16:00:00 29,0 24,0 28 15 E 10
23.05.2018 15:00:00 30,0 24,0 29 16 E 10
23.05.2018 14:00:00 30,0 24,0 22 12 E 10
23.05.2018 13:00:00 29,0 24,0 18 10 E 10
23.05.2018 12:00:00 29,0 24,0 28 15 E 10
23.05.2018 11:00:00 29,0 24,0 18 10 E 10
23.05.2018 10:00:00 28,0 23,0 18 10 ESE 10
23.05.2018 09:00:00 27,0 23,0 18 10 E 10
23.05.2018 08:00:00 26,0 23,0 0 0 N 10
23.05.2018 07:00:00 24,0 22,0 0 0 N 10
23.05.2018 06:00:00 - - - - - -
23.05.2018 05:00:00 23,0 22,0 0 0 N 10
23.05.2018 04:00:00 - - - - - -
23.05.2018 03:00:00 - - - - - -
23.05.2018 02:00:00 24,0 23,0 0 0 N 10
23.05.2018 01:00:00 - - - - - -
23.05.2018 00:00:00 - - - - - -
22.05.2018 23:00:00 25,0 23,0 18 10 E 10
22.05.2018 22:00:00 24,0 23,0 18 10 E 10
22.05.2018 21:00:00 25,0 23,0 15 8 ESE 10
22.05.2018 20:00:00 26,0 23,0 11 6 ESE 10
22.05.2018 19:00:00 27,0 24,0 22 12 E 10
22.05.2018 18:00:00 28,0 24,0 28 15 E 10
22.05.2018 17:00:00 29,0 24,0 26 14 ESE 10
22.05.2018 16:00:00 29,0 24,0 34 18 E 10
22.05.2018 15:00:00 30,0 24,0 31 17 E 10
22.05.2018 14:00:00 31,0 24,0 29 16 E 10
22.05.2018 13:00:00 30,0 24,0 28 15 E 10
22.05.2018 12:00:00 31,0 24,0 28 15 E 10
22.05.2018 11:00:00 30,0 24,0 18 10 E 10
22.05.2018 10:00:00 29,0 24,0 18 10 ESE 10
22.05.2018 09:00:00 28,0 23,0 18 10 ESE 10
22.05.2018 08:00:00 24,0 22,0 8 4 ESE 10
22.05.2018 07:00:00 23,0 23,0 0 0 N 10
22.05.2018 06:00:00 - - - - - -
22.05.2018 05:00:00 23,0 22,0 0 0 N 10
22.05.2018 04:00:00 - - - - - -
22.05.2018 03:00:00 - - - - - -
22.05.2018 02:00:00 23,0 23,0 0 0 N 10
22.05.2018 01:00:00 - - - - - -
22.05.2018 00:00:00 - - - - - -
21.05.2018 23:00:00 24,0 23,0 0 0 N 10
21.05.2018 22:00:00 24,0 23,0 0 0 N 10
21.05.2018 21:00:00 25,0 22,0 15 8 E 10
21.05.2018 20:00:00 25,0 23,0 21 11 E 10
21.05.2018 19:00:00 26,0 23,0 15 8 E 10
21.05.2018 18:00:00 27,0 23,0 26 14 E 10
21.05.2018 17:00:00 28,0 24,0 35 19 E 10
21.05.2018 16:00:00 29,0 24,0 18 10 E 10
21.05.2018 15:00:00 30,0 24,0 28 15 E 10
21.05.2018 14:00:00 30,0 24,0 28 15 E 10
21.05.2018 13:00:00 31,0 25,0 18 10 E 10
21.05.2018 12:00:00 29,0 22,0 28 15 E 10
21.05.2018 11:00:00 28,0 24,0 18 10 E 10
21.05.2018 10:00:00 27,0 24,0 18 10 E 10
21.05.2018 09:00:00 27,0 24,0 26 14 E 10
21.05.2018 08:00:00 25,0 23,0 9 5 E 10
21.05.2018 07:00:00 23,0 23,0 0 0 N 10
21.05.2018 06:00:00 - - - - - -
21.05.2018 05:00:00 23,0 22,0 0 0 N 10
21.05.2018 04:00:00 - - - - - -
21.05.2018 03:00:00 - - - - - -
21.05.2018 02:00:00 23,0 23,0 0 0 N 10
21.05.2018 01:00:00 - - - - - -
21.05.2018 00:00:00 - - - - - -
20.05.2018 23:00:00 24,0 23,0 0 0 N 10
20.05.2018 22:00:00 25,0 24,0 9 5 ESE 10
20.05.2018 21:00:00 25,0 24,0 15 8 ESE 10
20.05.2018 20:00:00 26,0 24,0 18 10 E 10
20.05.2018 19:00:00 26,0 24,0 34 18 E 10
20.05.2018 18:00:00 27,0 24,0 37 20 E 10
20.05.2018 17:00:00 28,0 23,0 37 20 E 10

tt = Température de l'air
td = dewpoint
ff = Vitesse du vent
dd = Direction du vent
vv = visibility

stations d'obs. à proximité